createdAt,value
2019-05-01T00:02:42.978Z,7.50
2019-05-01T00:05:54.034Z,7.50
2019-05-01T00:09:01.026Z,7.50
2019-05-01T00:12:08.036Z,7.40
2019-05-01T00:15:15.281Z,7.30
2019-05-01T00:18:22.580Z,7.20
2019-05-01T00:21:29.615Z,7.20
2019-05-01T00:24:36.598Z,7.20
2019-05-01T00:27:43.596Z,7.20
2019-05-01T00:30:50.607Z,7.10
2019-05-01T00:33:57.589Z,7.00
2019-05-01T00:37:04.584Z,7.00
2019-05-01T00:40:11.657Z,7.00
2019-05-01T00:43:18.664Z,7.00
2019-05-01T00:46:25.721Z,6.90
2019-05-01T00:49:32.732Z,6.80
2019-05-01T00:52:39.750Z,6.70
2019-05-01T00:56:05.258Z,6.60
2019-05-01T00:59:31.203Z,6.70
2019-05-01T01:02:41.134Z,6.60
2019-05-01T01:05:48.198Z,6.50
2019-05-01T01:08:55.226Z,6.40
2019-05-01T01:12:02.220Z,6.40
2019-05-01T01:15:09.641Z,6.50
2019-05-01T01:18:16.649Z,6.50
2019-05-01T01:21:23.686Z,6.50
2019-05-01T01:24:33.035Z,6.40
2019-05-01T01:27:40.003Z,6.40
2019-05-01T01:30:56.140Z,6.40
2019-05-01T01:33:55.650Z,6.40
2019-05-01T01:37:02.663Z,6.40
2019-05-01T01:40:10.621Z,6.30
2019-05-01T01:43:35.435Z,6.20
2019-05-01T01:46:43.047Z,6.10
2019-05-01T01:49:50.170Z,6.20
2019-05-01T01:52:57.265Z,6.10
2019-05-01T01:56:04.511Z,6.10
2019-05-01T01:59:11.940Z,6.10
2019-05-01T02:02:29.373Z,6.20
2019-05-01T02:05:40.111Z,6.20
2019-05-01T02:08:56.284Z,6.20
2019-05-01T02:11:55.863Z,6.20
2019-05-01T02:15:02.859Z,6.10
2019-05-01T02:18:09.950Z,6.00
2019-05-01T02:21:16.948Z,6.00
2019-05-01T02:24:23.935Z,6.00
2019-05-01T02:27:53.084Z,6.00
2019-05-01T02:31:28.392Z,6.00
2019-05-01T02:34:29.689Z,5.90
2019-05-01T02:37:38.782Z,5.90
2019-05-01T02:40:57.756Z,5.90
2019-05-01T02:44:22.228Z,6.00
2019-05-01T02:47:32.843Z,6.10
2019-05-01T02:50:40.640Z,5.90
2019-05-01T02:53:49.095Z,5.80
2019-05-01T02:57:17.979Z,5.70
2019-05-01T03:00:25.491Z,5.70
2019-05-01T03:03:32.604Z,5.70
2019-05-01T03:06:40.372Z,5.70
2019-05-01T03:09:47.566Z,5.60
2019-05-01T03:12:55.139Z,5.60
2019-05-01T03:16:02.946Z,5.50
2019-05-01T03:19:17.573Z,5.50
2019-05-01T03:22:35.935Z,5.50
2019-05-01T03:25:43.396Z,5.60
2019-05-01T03:28:50.357Z,5.60
2019-05-01T03:32:15.554Z,5.50
2019-05-01T03:35:06.370Z,5.50
2019-05-01T03:38:13.463Z,5.60
2019-05-01T03:41:20.655Z,5.60
2019-05-01T03:44:27.812Z,5.60
2019-05-01T03:47:35.306Z,5.70
2019-05-01T03:50:46.220Z,5.80
2019-05-01T03:53:51.119Z,5.80
2019-05-01T03:56:58.216Z,5.80
2019-05-01T04:00:07.330Z,5.80
2019-05-01T04:03:21.757Z,5.70
2019-05-01T04:06:28.947Z,5.80
2019-05-01T04:09:36.050Z,5.90
2019-05-01T04:12:43.521Z,6.10
2019-05-01T04:15:50.731Z,6.30
2019-05-01T04:18:57.749Z,6.50
2019-05-01T04:22:11.922Z,6.50
2019-05-01T04:25:19.545Z,6.60
2019-05-01T04:28:57.679Z,6.50
2019-05-01T04:32:25.890Z,6.60
2019-05-01T04:36:10.035Z,6.70
2019-05-01T04:39:17.092Z,6.70
2019-05-01T04:42:24.113Z,6.70
2019-05-01T04:45:31.130Z,6.80
2019-05-01T04:48:38.426Z,6.80
2019-05-01T04:51:46.126Z,7.10
2019-05-01T04:54:53.205Z,7.10
2019-05-01T04:58:00.178Z,7.20
2019-05-01T05:01:07.264Z,7.10
2019-05-01T05:04:14.303Z,7.10
2019-05-01T05:07:21.513Z,7.30
2019-05-01T05:10:29.043Z,7.60
2019-05-01T05:13:46.964Z,7.90
2019-05-01T05:16:57.824Z,8.00
2019-05-01T05:20:05.154Z,8.10
2019-05-01T05:23:12.470Z,8.20
2019-05-01T05:26:19.555Z,8.10
2019-05-01T05:29:26.774Z,8.10
2019-05-01T05:32:36.236Z,8.30
2019-05-01T05:35:46.231Z,8.40
2019-05-01T05:39:18.267Z,8.50
2019-05-01T05:42:25.293Z,8.70
2019-05-01T05:45:32.803Z,8.70
2019-05-01T05:48:39.801Z,8.70
2019-05-01T05:52:25.944Z,8.70
2019-05-01T05:55:41.511Z,8.80
2019-05-01T05:58:53.695Z,8.90
2019-05-01T06:02:22.420Z,9.10
2019-05-01T06:05:39.599Z,9.30
2019-05-01T06:08:49.665Z,9.60
2019-05-01T06:12:10.462Z,10.30
2019-05-01T06:15:41.276Z,10.70
2019-05-01T06:18:55.235Z,10.70
2019-05-01T06:22:29.137Z,10.80
2019-05-01T06:25:38.142Z,11.10
2019-05-01T06:28:45.135Z,11.80
2019-05-01T06:31:53.887Z,12.30
2019-05-01T06:35:02.988Z,13.40
2019-05-01T06:38:14.099Z,14.60
2019-05-01T06:41:21.108Z,15.60
2019-05-01T06:44:47.753Z,16.00
2019-05-01T06:48:01.371Z,16.30
2019-05-01T06:51:27.375Z,16.70
2019-05-01T06:54:35.670Z,17.00
2019-05-01T06:57:43.705Z,16.90
2019-05-01T07:00:52.018Z,16.20
2019-05-01T07:04:06.147Z,17.00
2019-05-01T07:07:23.987Z,17.30
2019-05-01T07:10:29.199Z,18.30
2019-05-01T07:13:25.617Z,19.00
2019-05-01T07:16:33.153Z,18.90
2019-05-01T07:20:11.813Z,18.50
2019-05-01T07:23:19.467Z,18.00
2019-05-01T07:26:26.603Z,17.30
2019-05-01T07:29:35.171Z,17.10
2019-05-01T07:32:42.792Z,17.40
2019-05-01T07:35:49.971Z,17.40
2019-05-01T07:38:57.028Z,17.30
2019-05-01T07:42:21.789Z,16.90
2019-05-01T07:45:49.237Z,17.00
2019-05-01T07:48:56.442Z,17.10
2019-05-01T07:52:03.444Z,17.70
2019-05-01T07:55:13.111Z,18.80
2019-05-01T07:58:20.565Z,19.80
2019-05-01T08:02:01.812Z,19.90
2019-05-01T08:05:09.953Z,20.50
2019-05-01T08:08:17.766Z,20.60
2019-05-01T08:11:24.762Z,20.40
2019-05-01T08:14:31.824Z,20.70
2019-05-01T08:17:41.053Z,20.80
2019-05-01T08:20:52.963Z,21.10
2019-05-01T08:23:59.946Z,21.50
2019-05-01T08:27:09.073Z,21.80
2019-05-01T08:30:54.081Z,22.10
2019-05-01T08:34:04.495Z,22.60
2019-05-01T08:37:11.502Z,22.80
2019-05-01T08:40:20.498Z,23.90
2019-05-01T08:43:27.177Z,25.60
2019-05-01T08:46:46.677Z,26.30
2019-05-01T08:49:58.341Z,26.60
2019-05-01T08:53:05.352Z,26.90
2019-05-01T08:56:12.453Z,27.40
2019-05-01T08:59:23.419Z,27.80
2019-05-01T09:02:28.062Z,27.60
2019-05-01T09:05:35.105Z,26.10
2019-05-01T09:08:42.211Z,25.40
2019-05-01T09:11:49.203Z,24.20
2019-05-01T09:14:56.200Z,25.70
2019-05-01T09:18:03.210Z,26.50
2019-05-01T09:21:10.225Z,26.90
2019-05-01T09:24:17.213Z,27.00
2019-05-01T09:27:37.617Z,27.70
2019-05-01T09:30:52.390Z,27.00
2019-05-01T09:33:59.476Z,26.50
2019-05-01T09:37:06.676Z,26.40
2019-05-01T09:40:14.310Z,26.90
2019-05-01T09:43:21.335Z,27.80
2019-05-01T09:46:28.658Z,29.10
2019-05-01T09:49:35.679Z,27.90
2019-05-01T09:53:07.709Z,28.10
2019-05-01T09:56:20.618Z,29.00
2019-05-01T09:59:27.660Z,29.60
2019-05-01T10:02:37.577Z,29.00
2019-05-01T10:05:44.206Z,28.70
2019-05-01T10:08:51.289Z,29.50
2019-05-01T10:11:58.320Z,28.00
2019-05-01T10:15:05.592Z,27.40
2019-05-01T10:18:12.643Z,28.00
2019-05-01T10:21:22.514Z,29.10
2019-05-01T10:24:31.977Z,30.20
2019-05-01T10:27:39.223Z,28.50
2019-05-01T10:31:02.412Z,27.70
2019-05-01T10:34:22.565Z,28.80
2019-05-01T10:37:33.851Z,29.10
2019-05-01T10:40:38.276Z,28.70
2019-05-01T10:43:45.251Z,27.30
2019-05-01T10:46:52.271Z,27.20
2019-05-01T10:49:59.254Z,26.80
2019-05-01T10:53:06.241Z,27.30
2019-05-01T10:56:13.255Z,28.20
2019-05-01T10:59:20.233Z,29.70
2019-05-01T11:02:27.338Z,28.80
2019-05-01T11:05:34.329Z,27.20
2019-05-01T11:08:41.338Z,27.50
2019-05-01T11:11:48.335Z,27.80
2019-05-01T11:14:55.329Z,28.30
2019-05-01T11:18:02.363Z,28.70
2019-05-01T11:21:09.320Z,29.60
2019-05-01T11:24:16.329Z,28.90
2019-05-01T11:27:23.321Z,27.60
2019-05-01T11:30:30.329Z,26.70
2019-05-01T11:33:57.447Z,25.40
2019-05-01T11:37:24.802Z,24.30
2019-05-01T11:40:37.869Z,23.10
2019-05-01T11:43:44.844Z,22.50
2019-05-01T11:46:51.884Z,21.60
2019-05-01T11:49:58.938Z,21.10
2019-05-01T11:53:05.935Z,21.00
2019-05-01T11:56:12.960Z,21.30
2019-05-01T11:59:19.940Z,21.10
2019-05-01T12:02:26.922Z,20.80
2019-05-01T12:05:33.918Z,20.80
2019-05-01T12:08:40.881Z,20.60
2019-05-01T12:11:49.483Z,20.50
2019-05-01T12:14:56.483Z,20.60
2019-05-01T12:18:03.507Z,20.50
2019-05-01T12:21:10.518Z,20.60
2019-05-01T12:24:17.535Z,20.50
2019-05-01T12:27:24.523Z,20.00
2019-05-01T12:30:31.512Z,19.90
2019-05-01T12:33:38.559Z,20.10
2019-05-01T12:36:46.382Z,20.20
2019-05-01T12:40:13.607Z,20.60
2019-05-01T12:43:20.612Z,21.10
2019-05-01T12:46:38.512Z,21.20
2019-05-01T12:49:47.232Z,20.90
2019-05-01T12:53:25.358Z,20.50
2019-05-01T12:56:36.707Z,20.50
2019-05-01T12:59:43.721Z,20.60
2019-05-01T13:02:51.140Z,20.30
2019-05-01T13:05:58.287Z,20.30
2019-05-01T13:09:07.022Z,20.30
2019-05-01T13:12:14.070Z,20.30
2019-05-01T13:15:21.090Z,20.20
2019-05-01T13:18:28.130Z,20.00
2019-05-01T13:21:35.176Z,19.80
2019-05-01T13:24:51.016Z,19.80
2019-05-01T13:28:09.062Z,19.80
2019-05-01T13:31:33.602Z,19.90
2019-05-01T13:34:40.586Z,20.10
2019-05-01T13:37:47.549Z,20.00
2019-05-01T13:40:54.548Z,20.10
2019-05-01T13:44:01.539Z,20.10
2019-05-01T13:47:08.492Z,20.00
2019-05-01T13:50:15.931Z,20.20
2019-05-01T13:53:22.899Z,20.10
2019-05-01T13:56:29.899Z,19.90
2019-05-01T13:59:36.893Z,20.30
2019-05-01T14:02:43.863Z,20.30
2019-05-01T14:05:50.979Z,20.40
2019-05-01T14:08:57.941Z,20.50
2019-05-01T14:12:04.964Z,20.60
2019-05-01T14:15:11.977Z,20.60
2019-05-01T14:18:18.922Z,20.40
2019-05-01T14:21:33.842Z,20.30
2019-05-01T14:24:43.679Z,20.40
2019-05-01T14:27:50.655Z,20.60
2019-05-01T14:30:57.632Z,20.80
2019-05-01T14:34:04.625Z,20.70
2019-05-01T14:37:11.619Z,20.40
2019-05-01T14:40:18.590Z,20.00
2019-05-01T14:43:25.583Z,19.60
2019-05-01T14:46:32.566Z,19.40
2019-05-01T14:49:39.637Z,19.50
2019-05-01T14:52:46.663Z,19.30
2019-05-01T14:55:53.610Z,19.40
2019-05-01T14:59:00.634Z,19.50
2019-05-01T15:02:07.646Z,19.60
2019-05-01T15:05:14.708Z,19.40
2019-05-01T15:08:21.713Z,19.30
2019-05-01T15:11:29.015Z,19.40
2019-05-01T15:14:54.952Z,19.50
2019-05-01T15:18:10.552Z,19.50
2019-05-01T15:21:17.544Z,19.70
2019-05-01T15:24:24.529Z,19.80
2019-05-01T15:27:31.474Z,19.60
2019-05-01T15:30:38.491Z,19.60
2019-05-01T15:33:45.523Z,19.50
2019-05-01T15:36:52.484Z,19.60
2019-05-01T15:40:06.727Z,19.50
2019-05-01T15:43:28.789Z,19.60
2019-05-01T15:46:37.508Z,19.40
2019-05-01T15:49:44.504Z,19.40
2019-05-01T15:52:51.489Z,19.50
2019-05-01T15:55:58.504Z,19.60
2019-05-01T15:59:06.440Z,19.50
2019-05-01T16:02:13.457Z,19.30
2019-05-01T16:05:20.545Z,19.30
2019-05-01T16:08:27.553Z,19.10
2019-05-01T16:12:11.812Z,19.20
2019-05-01T16:15:25.538Z,19.30
2019-05-01T16:18:32.562Z,19.30
2019-05-01T16:21:39.591Z,19.30
2019-05-01T16:24:46.627Z,19.30
2019-05-01T16:27:53.738Z,19.30
2019-05-01T16:31:00.694Z,19.30
2019-05-01T16:34:07.714Z,19.30
2019-05-01T16:37:14.730Z,19.10
2019-05-01T16:40:49.823Z,19.20
2019-05-01T16:43:56.853Z,19.10
2019-05-01T16:47:03.854Z,18.90
2019-05-01T16:50:11.417Z,18.80
2019-05-01T16:53:18.372Z,18.80
2019-05-01T16:56:25.481Z,18.60
2019-05-01T16:59:32.487Z,18.50
2019-05-01T17:02:59.431Z,18.50
2019-05-01T17:06:14.634Z,18.40
2019-05-01T17:09:39.204Z,18.50
2019-05-01T17:12:47.930Z,18.40
2019-05-01T17:15:55.044Z,18.50
2019-05-01T17:19:02.057Z,18.50
2019-05-01T17:22:13.771Z,18.60
2019-05-01T17:25:17.842Z,18.50
2019-05-01T17:28:24.827Z,18.40
2019-05-01T17:31:31.814Z,18.40
2019-05-01T17:34:38.813Z,18.40
2019-05-01T17:37:45.787Z,18.40
2019-05-01T17:40:53.589Z,18.40
2019-05-01T17:44:00.660Z,18.20
2019-05-01T17:47:07.821Z,18.10
2019-05-01T17:50:16.463Z,18.10
2019-05-01T17:53:23.625Z,18.00
2019-05-01T17:56:30.653Z,17.90
2019-05-01T17:59:37.732Z,17.80
2019-05-01T18:02:52.129Z,17.60
2019-05-01T18:06:10.889Z,17.50
2019-05-01T18:09:18.632Z,17.50
2019-05-01T18:12:28.552Z,17.50
2019-05-01T18:15:34.661Z,17.40
2019-05-01T18:18:41.736Z,17.30
2019-05-01T18:21:55.364Z,17.10
2019-05-01T18:25:18.568Z,17.00
2019-05-01T18:28:50.845Z,16.80
2019-05-01T18:31:57.884Z,16.70
2019-05-01T18:35:08.901Z,16.50
2019-05-01T18:38:24.031Z,16.30
2019-05-01T18:41:50.588Z,16.20
2019-05-01T18:44:57.762Z,16.00
2019-05-01T18:48:04.950Z,15.80
2019-05-01T18:51:12.047Z,15.70
2019-05-01T18:54:19.828Z,15.50
2019-05-01T18:57:26.866Z,15.30
2019-05-01T19:00:33.948Z,15.20
2019-05-01T19:03:42.386Z,15.00
2019-05-01T19:06:49.996Z,14.90
2019-05-01T19:09:57.204Z,14.70
2019-05-01T19:13:04.477Z,14.60
2019-05-01T19:16:12.529Z,14.40
2019-05-01T19:19:19.754Z,14.30
2019-05-01T19:22:26.866Z,14.10
2019-05-01T19:25:33.880Z,14.10
2019-05-01T19:28:40.959Z,13.90
2019-05-01T19:31:48.014Z,13.80
2019-05-01T19:34:55.062Z,13.80
2019-05-01T19:38:02.160Z,13.60
2019-05-01T19:41:13.880Z,13.50
2019-05-01T19:44:20.136Z,13.40
2019-05-01T19:47:27.224Z,13.30
2019-05-01T19:50:34.293Z,13.20
2019-05-01T19:53:41.482Z,13.10
2019-05-01T19:56:48.498Z,13.00
2019-05-01T19:59:55.721Z,12.90
2019-05-01T20:03:02.764Z,12.80
2019-05-01T20:06:09.878Z,12.70
2019-05-01T20:09:17.013Z,12.60
2019-05-01T20:12:24.093Z,12.50
2019-05-01T20:15:31.828Z,12.40
2019-05-01T20:18:39.025Z,12.30
2019-05-01T20:21:47.519Z,12.20
2019-05-01T20:24:54.540Z,12.10
2019-05-01T20:28:01.656Z,12.10
2019-05-01T20:31:08.579Z,12.00
2019-05-01T20:34:17.293Z,11.90
2019-05-01T20:37:24.383Z,11.90
2019-05-01T20:40:31.458Z,11.90
2019-05-01T20:43:43.431Z,11.80
2019-05-01T20:46:47.147Z,11.60
2019-05-01T20:49:54.223Z,11.60
2019-05-01T20:53:01.226Z,11.50
2019-05-01T20:56:23.930Z,11.40
2019-05-01T20:59:35.166Z,11.20
2019-05-01T21:02:43.097Z,11.10
2019-05-01T21:06:02.893Z,10.90
2019-05-01T21:09:21.169Z,10.80
2019-05-01T21:12:28.206Z,10.70
2019-05-01T21:15:35.334Z,10.60
2019-05-01T21:18:42.303Z,10.50
2019-05-01T21:21:49.359Z,10.50
2019-05-01T21:24:56.398Z,10.40
2019-05-01T21:28:04.152Z,10.40
2019-05-01T21:31:11.245Z,10.40
2019-05-01T21:34:18.250Z,10.30
2019-05-01T21:37:25.244Z,10.30
2019-05-01T21:40:40.675Z,10.30
2019-05-01T21:43:42.512Z,10.40
2019-05-01T21:46:49.642Z,10.40
2019-05-01T21:49:56.695Z,10.30
2019-05-01T21:53:06.807Z,10.30
2019-05-01T21:56:12.298Z,10.20
2019-05-01T21:59:19.377Z,10.10
2019-05-01T22:02:26.395Z,10.10
2019-05-01T22:05:34.765Z,10.20
2019-05-01T22:08:42.009Z,10.10
2019-05-01T22:11:49.056Z,10.00
2019-05-01T22:14:59.797Z,9.90
2019-05-01T22:18:34.926Z,9.80
2019-05-01T22:21:55.547Z,9.80
2019-05-01T22:25:33.640Z,9.80
2019-05-01T22:28:50.175Z,9.70
2019-05-01T22:32:03.352Z,9.60
2019-05-01T22:35:26.340Z,9.50
2019-05-01T22:38:33.432Z,9.40
2019-05-01T22:41:40.467Z,9.30
2019-05-01T22:44:47.565Z,9.30
2019-05-01T22:47:54.591Z,9.20
2019-05-01T22:51:08.110Z,9.20
2019-05-01T22:54:15.142Z,9.10
2019-05-01T22:57:22.246Z,9.10
2019-05-01T23:00:57.874Z,9.10
2019-05-01T23:04:12.146Z,9.00
2019-05-01T23:07:18.616Z,9.00
2019-05-01T23:10:25.739Z,8.90
2019-05-01T23:13:32.753Z,8.80
2019-05-01T23:17:03.012Z,8.80
2019-05-01T23:20:08.591Z,8.70
2019-05-01T23:23:15.606Z,8.60
2019-05-01T23:26:22.608Z,8.50
2019-05-01T23:29:29.641Z,8.40
2019-05-01T23:32:36.731Z,8.30
2019-05-01T23:35:43.762Z,8.40
2019-05-01T23:38:50.812Z,8.40
2019-05-01T23:41:57.822Z,8.40
2019-05-01T23:45:05.484Z,8.30
2019-05-01T23:48:12.418Z,8.10
2019-05-01T23:51:23.821Z,8.00
2019-05-01T23:54:28.113Z,8.00
2019-05-01T23:57:35.093Z,8.00
